Time;durP1;ratioP1;P1;durP2;ratioP2;P2;SDS_P1;SDS_P2;PMS_P1;PMS_P2;Temp;Humidity;BMP_temperature;BMP_pressure;BME280_temperature;BME280_humidity;BME280_pressure;Samples;Min_cycle;Max_cycle;Signal;HPM_P1;HPM_P2
2021/12/18 00:00:51;;;;;;;7.50;5.40;;;7.70;99.90;;;;;;5090927;28;20336;-80
2021/12/18 00:03:17;;;;;;;11.23;5.88;;;7.80;99.90;;;;;;5091233;28;20023;-79
2021/12/18 00:05:44;;;;;;;7.55;5.03;;;7.80;99.90;;;;;;5089236;28;20030;-78
2021/12/18 00:08:10;;;;;;;7.60;5.20;;;7.80;99.90;;;;;;5090377;28;20051;-80
2021/12/18 00:10:37;;;;;;;14.38;7.57;;;7.80;99.90;;;;;;5090775;28;20073;-81
2021/12/18 00:13:03;;;;;;;10.15;6.45;;;7.90;99.90;;;;;;5089759;28;20616;-81
2021/12/18 00:15:29;;;;;;;8.82;5.97;;;7.90;99.90;;;;;;5089778;28;20016;-80
2021/12/18 00:17:56;;;;;;;7.82;4.78;;;7.90;99.90;;;;;;5090602;28;20180;-79
2021/12/18 00:20:24;;;;;;;7.25;5.75;;;7.90;99.90;;;;;;5091338;28;20027;-84
2021/12/18 00:22:50;;;;;;;9.00;5.75;;;7.90;99.90;;;;;;5090926;28;20032;-80
2021/12/18 00:25:15;;;;;;;5.78;4.45;;;7.90;99.90;;;;;;5090356;28;20032;-80
2021/12/18 00:27:41;;;;;;;6.53;4.78;;;7.80;99.90;;;;;;5090483;28;20046;-80
2021/12/18 00:30:08;;;;;;;7.40;5.32;;;7.70;99.90;;;;;;5089736;28;20024;-84
2021/12/18 00:32:34;;;;;;;7.15;5.13;;;7.70;99.90;;;;;;5089702;28;20032;-82
2021/12/18 00:35:00;;;;;;;8.82;4.65;;;7.70;99.90;;;;;;5089828;28;20024;-80
2021/12/18 00:37:25;;;;;;;7.30;4.97;;;7.70;99.90;;;;;;5091101;28;20065;-80
2021/12/18 00:39:57;;;;;;;7.65;5.30;;;7.80;99.90;;;;;;5088756;28;20119;-79
2021/12/18 00:45:05;;;;;;;6.25;4.65;;;7.80;99.90;;;;;;5086829;28;20028;-81
2021/12/18 00:47:31;;;;;;;6.68;4.80;;;7.70;99.90;;;;;;5089571;28;20040;-81
2021/12/18 00:49:57;;;;;;;4.93;4.32;;;7.70;99.90;;;;;;5090429;28;20032;-80
2021/12/18 00:52:23;;;;;;;9.27;5.13;;;7.60;99.90;;;;;;5089760;28;20062;-81
2021/12/18 00:54:49;;;;;;;7.85;4.82;;;7.60;99.90;;;;;;5088538;28;20814;-81
2021/12/18 00:57:15;;;;;;;7.20;4.93;;;7.60;99.90;;;;;;5089204;28;20024;-81
2021/12/18 00:59:41;;;;;;;6.95;4.95;;;7.60;99.90;;;;;;5089568;28;20034;-80
2021/12/18 01:02:06;;;;;;;8.43;4.55;;;7.60;99.90;;;;;;5090111;28;20501;-78
2021/12/18 01:04:32;;;;;;;6.22;4.68;;;7.50;99.90;;;;;;5090398;28;20027;-78
2021/12/18 01:06:58;;;;;;;10.13;4.75;;;7.50;99.90;;;;;;5087811;28;20034;-77
2021/12/18 01:09:41;;;;;;;6.72;4.78;;;7.50;99.90;;;;;;5090705;28;20032;-78
2021/12/18 01:12:07;;;;;;;;;;;7.60;99.90;;;;;;5088882;28;20036;-77
2021/12/18 01:14:55;;;;;;;7.45;4.80;;;7.60;99.90;;;;;;5090218;28;19908;-78
2021/12/18 01:25:09;;;;;;;8.00;5.13;;;7.40;99.90;;;;;;5089859;28;20017;-78
2021/12/18 01:27:35;;;;;;;6.18;4.75;;;7.40;99.90;;;;;;5089213;28;20070;-77
2021/12/18 01:30:03;;;;;;;9.15;4.47;;;7.50;99.90;;;;;;5085901;28;20273;-78
2021/12/18 01:32:29;;;;;;;7.20;4.50;;;7.50;99.90;;;;;;5087530;28;20500;-78
2021/12/18 01:34:55;;;;;;;6.25;4.53;;;7.50;99.90;;;;;;5089291;28;20478;-78
2021/12/18 01:37:21;;;;;;;9.85;4.30;;;7.50;99.90;;;;;;5087708;28;20042;-78
2021/12/18 01:39:47;;;;;;;5.70;4.40;;;7.40;99.90;;;;;;5089442;28;20024;-78
2021/12/18 01:52:54;;;;;;;6.10;3.85;;;7.50;99.90;;;;;;5088312;28;20588;-78
2021/12/18 01:55:21;;;;;;;6.60;4.47;;;7.50;99.90;;;;;;5088988;28;20059;-78
2021/12/18 01:57:47;;;;;;;13.00;5.93;;;7.50;99.90;;;;;;5086953;28;20537;-78
2021/12/18 02:00:29;;;;;;;4.65;4.03;;;7.60;99.90;;;;;;5088668;28;20061;-78
2021/12/18 02:02:55;;;;;;;6.57;3.92;;;7.60;99.90;;;;;;5088487;28;20557;-78
2021/12/18 02:05:21;;;;;;;6.53;4.60;;;7.60;99.90;;;;;;5087504;28;20004;-78
2021/12/18 02:07:46;;;;;;;5.78;4.00;;;7.60;99.90;;;;;;5086539;28;20040;-78
2021/12/18 02:10:22;;;;;;;6.38;4.03;;;7.70;99.90;;;;;;5087060;28;20168;-78
2021/12/18 02:12:57;;;;;;;5.32;4.15;;;7.60;99.90;;;;;;5086082;28;20035;-79
2021/12/18 02:21:07;;;;;;;6.20;4.30;;;7.60;99.90;;;;;;5086984;28;20078;-78
2021/12/18 02:23:40;;;;;;;6.65;4.07;;;7.70;99.90;;;;;;5085246;28;20032;-78
2021/12/18 02:26:05;;;;;;;;;;;7.70;99.90;;;;;;5085711;28;20489;-79
2021/12/18 02:28:31;;;;;;;7.55;4.47;;;7.60;99.90;;;;;;5079873;28;19920;-78
2021/12/18 02:30:58;;;;;;;11.27;4.90;;;7.60;99.90;;;;;;5087861;28;20482;-78
2021/12/18 02:33:25;;;;;;;7.20;3.90;;;7.50;99.90;;;;;;5088559;28;20031;-78
2021/12/18 02:35:53;;;;;;;5.55;4.53;;;7.40;99.90;;;;;;5086743;28;20085;-78
2021/12/18 02:38:23;;;;;;;6.43;4.35;;;7.50;99.90;;;;;;5087525;28;20497;-78
2021/12/18 02:43:18;;;;;;;6.05;4.35;;;7.60;99.90;;;;;;5085942;28;20051;-77
2021/12/18 02:45:43;;;;;;;4.60;4.00;;;7.60;99.90;;;;;;5088291;28;20521;-78
2021/12/18 02:48:09;;;;;;;5.13;3.95;;;7.60;99.90;;;;;;5087972;28;20039;-78
2021/12/18 02:50:39;;;;;;;6.63;3.90;;;7.50;99.90;;;;;;5085984;28;20505;-78
2021/12/18 02:53:09;;;;;;;7.13;4.07;;;7.50;99.90;;;;;;5088270;28;20036;-78
2021/12/18 02:55:34;;;;;;;7.28;4.40;;;7.40;99.90;;;;;;5086714;28;20039;-78
2021/12/18 02:58:00;;;;;;;7.47;4.13;;;7.40;99.90;;;;;;5086924;28;20474;-78
2021/12/18 03:00:27;;;;;;;6.72;4.40;;;7.40;99.90;;;;;;5086746;28;20016;-77
2021/12/18 03:02:53;;;;;;;6.95;4.55;;;7.30;99.90;;;;;;5086216;28;20032;-77
2021/12/18 03:05:26;;;;;;;10.65;4.55;;;7.30;99.90;;;;;;5087655;28;20090;-78
2021/12/18 03:07:59;;;;;;;10.32;4.28;;;7.40;99.90;;;;;;5090692;28;20032;-78
2021/12/18 03:24:27;;;;;;;7.90;4.50;;;7.10;99.90;;;;;;5092130;28;20517;-78
2021/12/18 03:26:53;;;;;;;6.18;4.82;;;7.00;99.90;;;;;;5092577;28;20020;-77
2021/12/18 03:29:19;;;;;;;6.30;4.80;;;7.10;99.90;;;;;;5094820;28;20040;-78
2021/12/18 03:31:45;;;;;;;8.07;5.10;;;7.10;99.90;;;;;;5093867;28;20032;-77
2021/12/18 03:34:10;;;;;;;7.97;5.07;;;7.20;99.90;;;;;;5094063;28;20102;-76
2021/12/18 03:36:36;;;;;;;5.95;4.40;;;7.20;99.90;;;;;;5093936;28;20032;-78
2021/12/18 03:39:03;;;;;;;6.85;4.70;;;7.30;99.90;;;;;;5094373;28;20036;-78
2021/12/18 03:41:29;;;;;;;5.88;4.35;;;7.30;99.90;;;;;;5093817;28;20048;-78
2021/12/18 03:43:54;;;;;;;7.07;4.40;;;7.20;99.90;;;;;;5093951;28;20040;-78
2021/12/18 03:46:20;;;;;;;6.97;4.47;;;7.10;99.90;;;;;;5093829;28;20119;-78
2021/12/18 03:48:46;;;;;;;7.35;4.35;;;7.10;99.90;;;;;;5094134;28;20177;-78
2021/12/18 03:51:12;;;;;;;6.85;4.50;;;7.10;99.90;;;;;;5093727;28;20123;-78
2021/12/18 03:53:38;;;;;;;6.78;4.72;;;7.10;99.90;;;;;;5093814;28;20500;-78
2021/12/18 03:56:04;;;;;;;8.27;4.78;;;7.00;99.90;;;;;;5093738;28;20051;-78
2021/12/18 03:58:30;;;;;;;7.00;4.97;;;7.00;99.90;;;;;;5093854;28;20020;-78
2021/12/18 04:00:56;;;;;;;8.70;4.57;;;7.00;99.90;;;;;;5091475;28;20123;-78
2021/12/18 04:03:22;;;;;;;6.65;4.97;;;6.90;99.90;;;;;;5092389;28;20020;-78
2021/12/18 04:05:48;;;;;;;5.55;4.55;;;6.80;99.90;;;;;;5093720;28;20032;-77
2021/12/18 04:08:14;;;;;;;6.90;4.63;;;6.80;99.90;;;;;;5093570;28;20072;-77
2021/12/18 04:10:41;;;;;;;9.95;5.03;;;6.80;99.90;;;;;;5093460;28;20104;-78
2021/12/18 04:13:08;;;;;;;8.50;5.13;;;6.80;99.90;;;;;;5093452;28;20039;-78
2021/12/18 04:15:35;;;;;;;8.65;5.57;;;6.80;99.90;;;;;;5093286;28;20028;-78
2021/12/18 04:18:01;;;;;;;8.30;5.20;;;6.80;99.90;;;;;;5092868;28;20653;-78
2021/12/18 04:20:27;;;;;;;8.20;4.85;;;6.70;99.90;;;;;;5092295;28;20028;-78
2021/12/18 04:22:53;;;;;;;8.27;4.75;;;6.70;99.90;;;;;;5093497;28;20390;-78
2021/12/18 04:25:19;;;;;;;11.07;4.82;;;6.70;99.90;;;;;;5093269;28;20028;-78
2021/12/18 04:27:45;;;;;;;7.43;4.78;;;6.70;99.90;;;;;;5093195;28;20415;-77
2021/12/18 04:30:11;;;;;;;7.25;5.22;;;6.60;99.90;;;;;;5092801;28;20213;-78
2021/12/18 04:32:37;;;;;;;8.32;5.00;;;6.60;99.90;;;;;;5091683;28;20024;-79
2021/12/18 04:35:03;;;;;;;7.93;4.72;;;6.50;99.90;;;;;;5093133;28;20024;-79
2021/12/18 04:37:29;;;;;;;7.25;4.65;;;6.40;99.90;;;;;;5091818;28;20471;-79
2021/12/18 04:39:54;;;;;;;10.18;4.82;;;6.30;99.90;;;;;;5092536;28;20031;-79
2021/12/18 04:42:20;;;;;;;12.13;5.22;;;6.30;99.90;;;;;;5092211;28;20527;-80
2021/12/18 04:44:46;;;;;;;20.70;7.60;;;6.30;99.90;;;;;;5089851;28;20035;-79
2021/12/18 04:47:12;;;;;;;47.05;13.13;;;6.30;99.90;;;;;;5081014;28;20040;-79
2021/12/18 04:49:38;;;;;;;8.23;5.10;;;6.70;99.90;;;;;;5093112;28;20073;-79
2021/12/18 04:52:04;;;;;;;7.32;4.90;;;7.00;99.90;;;;;;5091924;28;20393;-78
2021/12/18 04:54:30;;;;;;;6.50;4.25;;;7.20;99.90;;;;;;5092792;28;20028;-79
2021/12/18 04:56:56;;;;;;;6.13;4.50;;;7.20;99.90;;;;;;5087427;28;20036;-79
2021/12/18 04:59:22;;;;;;;6.63;4.90;;;7.10;99.90;;;;;;5093195;28;20024;-80
2021/12/18 05:01:50;;;;;;;7.22;4.43;;;7.10;99.90;;;;;;5093225;28;20024;-79
2021/12/18 05:04:15;;;;;;;6.18;4.03;;;7.00;99.90;;;;;;5092453;28;20054;-79
2021/12/18 05:06:45;;;;;;;5.78;4.55;;;7.10;99.90;;;;;;5091878;28;20016;-79
2021/12/18 05:09:14;;;;;;;7.40;4.45;;;7.30;99.90;;;;;;5091409;28;20032;-80
2021/12/18 05:11:42;;;;;;;6.85;4.38;;;7.30;99.90;;;;;;5091803;28;20115;-79
2021/12/18 05:14:08;;;;;;;6.15;4.10;;;7.20;99.90;;;;;;5091457;28;20444;-80
2021/12/18 05:16:34;;;;;;;6.63;4.68;;;7.10;99.90;;;;;;5091734;28;20475;-79
2021/12/18 05:19:00;;;;;;;7.43;4.40;;;7.20;99.90;;;;;;5091284;28;20020;-80
2021/12/18 05:21:27;;;;;;;7.45;4.28;;;7.10;99.90;;;;;;5092095;28;20024;-79
2021/12/18 05:23:53;;;;;;;8.15;4.60;;;7.00;99.90;;;;;;5092450;28;20118;-80
2021/12/18 05:26:19;;;;;;;5.55;4.20;;;6.90;99.90;;;;;;5087762;28;20099;-76
2021/12/18 05:28:45;;;;;;;6.72;4.43;;;7.00;99.90;;;;;;5090512;28;20079;-79
2021/12/18 05:31:13;;;;;;;7.22;4.20;;;7.00;99.90;;;;;;5090739;28;20032;-80
2021/12/18 05:33:39;;;;;;;4.75;3.65;;;6.90;99.90;;;;;;5091993;28;20028;-79
2021/12/18 05:36:24;;;;;;;6.30;4.22;;;6.90;99.90;;;;;;5090891;28;20110;-80
2021/12/18 05:38:49;;;;;;;5.90;3.80;;;7.10;99.90;;;;;;5091261;28;20016;-79
2021/12/18 05:41:15;;;;;;;6.72;3.90;;;7.20;99.90;;;;;;5091481;28;20109;-80
2021/12/18 05:43:41;;;;;;;5.38;4.05;;;7.20;99.90;;;;;;5090716;28;20024;-79
2021/12/18 05:46:06;;;;;;;5.95;3.90;;;7.10;99.90;;;;;;5090236;28;20020;-80
2021/12/18 05:48:32;;;;;;;8.40;4.65;;;7.20;99.90;;;;;;5086258;28;20040;-79
2021/12/18 05:50:58;;;;;;;7.70;4.63;;;7.10;99.90;;;;;;5092146;28;20038;-79
2021/12/18 05:53:23;;;;;;;7.35;5.05;;;7.10;99.90;;;;;;5091742;28;20485;-80
2021/12/18 05:55:49;;;;;;;6.82;4.40;;;7.20;99.90;;;;;;5090370;28;20096;-80
2021/12/18 05:58:14;;;;;;;6.20;4.45;;;7.20;99.90;;;;;;5085196;28;20364;-80
2021/12/18 06:00:40;;;;;;;6.35;4.47;;;7.20;99.90;;;;;;5090761;28;20047;-80
2021/12/18 06:03:06;;;;;;;8.00;4.93;;;7.10;99.90;;;;;;5083953;28;20101;-79
2021/12/18 06:05:32;;;;;;;6.68;4.80;;;7.10;99.90;;;;;;5090177;28;20028;-80
2021/12/18 06:07:58;;;;;;;8.98;5.60;;;7.10;99.90;;;;;;5084356;28;20047;-78
2021/12/18 06:10:33;;;;;;;7.80;4.90;;;6.90;99.90;;;;;;5089132;28;20161;-79
2021/12/18 06:13:01;;;;;;;10.30;5.13;;;6.80;99.90;;;;;;5091399;28;20039;-80
2021/12/18 06:15:28;;;;;;;8.35;5.57;;;6.70;99.90;;;;;;5089984;28;20028;-81
2021/12/18 06:17:55;;;;;;;10.15;5.22;;;6.60;99.90;;;;;;5091058;28;20032;-79
2021/12/18 06:20:21;;;;;;;9.25;5.72;;;6.40;99.90;;;;;;5090059;28;20035;-80
2021/12/18 06:22:47;;;;;;;8.88;4.93;;;6.30;99.90;;;;;;5091218;28;20056;-79
2021/12/18 06:25:12;;;;;;;7.57;5.35;;;6.10;99.90;;;;;;5091081;28;20118;-79
2021/12/18 06:27:38;;;;;;;7.00;5.05;;;6.00;99.90;;;;;;5087981;28;20512;-79
2021/12/18 06:30:05;;;;;;;10.88;5.75;;;6.00;99.90;;;;;;5088091;28;20035;-84
2021/12/18 06:32:31;;;;;;;8.32;5.28;;;5.90;99.90;;;;;;5089229;28;20026;-81
2021/12/18 06:34:57;;;;;;;9.85;5.75;;;6.00;99.90;;;;;;5089157;28;20107;-81
2021/12/18 06:37:23;;;;;;;11.35;6.85;;;6.10;99.90;;;;;;5089380;28;20027;-80
2021/12/18 06:39:49;;;;;;;8.20;5.35;;;6.10;99.90;;;;;;5090482;28;20111;-79
2021/12/18 06:42:14;;;;;;;9.10;5.88;;;6.10;99.90;;;;;;5086896;28;20139;-80
2021/12/18 06:44:40;;;;;;;8.05;6.05;;;6.10;99.90;;;;;;5090356;28;20509;-80
2021/12/18 06:47:06;;;;;;;10.32;6.18;;;6.10;99.90;;;;;;5088357;28;20373;-80
2021/12/18 06:49:31;;;;;;;7.40;5.85;;;6.10;99.90;;;;;;5089867;28;20497;-79
2021/12/18 06:51:57;;;;;;;8.60;5.40;;;6.10;99.90;;;;;;5089095;28;20085;-79
2021/12/18 06:54:23;;;;;;;8.30;5.63;;;6.10;99.90;;;;;;5088158;28;20066;-79
2021/12/18 06:56:49;;;;;;;8.88;5.88;;;6.10;99.90;;;;;;5089665;28;20028;-82
2021/12/18 06:59:15;;;;;;;9.50;5.28;;;6.10;99.90;;;;;;5088824;28;20055;-78
2021/12/18 07:01:41;;;;;;;7.80;5.18;;;6.00;99.90;;;;;;5090339;28;20442;-78
2021/12/18 07:04:07;;;;;;;8.93;5.63;;;5.90;99.90;;;;;;5090683;28;20108;-79
2021/12/18 07:06:33;;;;;;;8.77;5.53;;;5.80;99.90;;;;;;5090372;28;20039;-78
2021/12/18 07:08:58;;;;;;;7.93;5.53;;;5.80;99.90;;;;;;5090406;28;20048;-78
2021/12/18 07:11:24;;;;;;;8.27;5.15;;;5.80;99.90;;;;;;5090153;28;20031;-78
2021/12/18 07:13:51;;;;;;;9.18;5.25;;;5.80;99.90;;;;;;5090631;28;20035;-78
2021/12/18 07:16:16;;;;;;;10.40;5.50;;;6.00;99.90;;;;;;5090109;28;20030;-77
2021/12/18 07:18:42;;;;;;;6.18;5.30;;;6.30;99.90;;;;;;5090386;28;20503;-77
2021/12/18 07:21:08;;;;;;;9.43;5.22;;;6.50;99.90;;;;;;5090205;28;20024;-77
2021/12/18 07:23:34;;;;;;;8.23;4.80;;;6.60;99.90;;;;;;5090255;28;20158;-77
2021/12/18 07:25:59;;;;;;;9.10;5.72;;;6.60;99.90;;;;;;5089811;28;20024;-77
2021/12/18 07:28:25;;;;;;;9.20;5.82;;;6.60;99.90;;;;;;5090361;28;20067;-76
2021/12/18 07:30:51;;;;;;;8.27;5.75;;;6.50;99.90;;;;;;5090076;28;20474;-78
2021/12/18 07:33:17;;;;;;;6.35;5.05;;;6.60;99.90;;;;;;5090251;28;20035;-77
2021/12/18 07:35:42;;;;;;;9.38;5.50;;;6.70;99.90;;;;;;5089981;28;20031;-77
2021/12/18 07:38:09;;;;;;;14.77;5.00;;;6.80;99.90;;;;;;5090141;28;20448;-77
2021/12/18 07:40:35;;;;;;;6.50;5.10;;;6.80;99.90;;;;;;5089623;28;20119;-78
2021/12/18 07:43:02;;;;;;;9.15;6.00;;;6.80;99.90;;;;;;5090088;28;20044;-78
2021/12/18 07:45:27;;;;;;;7.60;5.85;;;7.00;99.90;;;;;;5089968;28;20028;-78
2021/12/18 07:47:53;;;;;;;6.93;5.75;;;7.10;99.90;;;;;;5088954;28;20101;-78
2021/12/18 07:50:20;;;;;;;9.55;5.30;;;7.10;99.90;;;;;;5089847;28;20386;-78
2021/12/18 07:52:49;;;;;;;6.43;4.93;;;7.10;99.90;;;;;;5090705;28;20115;-79
2021/12/18 07:55:17;;;;;;;6.93;5.20;;;7.20;99.90;;;;;;5093765;28;20093;-79
2021/12/18 07:57:43;;;;;;;43.55;27.27;;;7.40;99.90;;;;;;5093609;28;20489;-79
2021/12/18 08:00:12;;;;;;;53.58;29.52;;;7.50;99.90;;;;;;5093530;28;20107;-78
2021/12/18 08:02:39;;;;;;;55.90;30.30;;;7.50;99.90;;;;;;5093592;28;20021;-79
2021/12/18 08:05:05;;;;;;;123.20;71.07;;;7.50;99.90;;;;;;5093299;28;20184;-78
2021/12/18 08:07:31;;;;;;;50.80;26.77;;;7.60;99.90;;;;;;5093320;28;20047;-78
2021/12/18 08:09:57;;;;;;;22.33;11.10;;;7.70;99.90;;;;;;5093637;28;20474;-78
2021/12/18 08:12:22;;;;;;;10.55;5.75;;;7.80;99.90;;;;;;5092133;28;20578;-79
2021/12/18 08:14:48;;;;;;;12.40;7.45;;;7.90;99.90;;;;;;5092113;28;20114;-79
2021/12/18 08:17:14;;;;;;;13.63;8.70;;;7.90;99.90;;;;;;5093524;28;20036;-78
2021/12/18 08:19:40;;;;;;;11.85;7.95;;;8.00;99.90;;;;;;5092090;28;20023;-77
2021/12/18 08:22:06;;;;;;;18.08;8.05;;;7.90;99.90;;;;;;5093299;28;20020;-78
2021/12/18 08:24:32;;;;;;;9.80;5.88;;;7.90;99.90;;;;;;5093643;28;20081;-79
2021/12/18 08:26:58;;;;;;;12.00;5.30;;;7.90;99.90;;;;;;5092661;28;20211;-79
2021/12/18 08:29:24;;;;;;;8.35;4.72;;;8.00;99.90;;;;;;5093900;28;20057;-78
2021/12/18 08:31:51;;;;;;;6.63;4.63;;;8.00;99.90;;;;;;5092861;28;20028;-78
2021/12/18 08:34:21;;;;;;;6.55;4.68;;;8.00;99.90;;;;;;5093029;28;20052;-78
2021/12/18 08:36:47;;;;;;;6.18;3.95;;;8.00;99.90;;;;;;5092913;28;20024;-78
2021/12/18 08:39:13;;;;;;;9.13;4.65;;;8.10;99.90;;;;;;5093184;28;20039;-78
2021/12/18 08:41:42;;;;;;;8.80;5.20;;;8.10;99.90;;;;;;5092438;28;20066;-78
2021/12/18 08:44:08;;;;;;;8.23;4.88;;;8.10;99.90;;;;;;5090913;28;20119;-78
2021/12/18 08:46:34;;;;;;;6.20;4.25;;;8.10;99.90;;;;;;5091546;28;20043;-78
2021/12/18 08:49:00;;;;;;;7.78;4.10;;;8.10;99.90;;;;;;5092952;28;20036;-78
2021/12/18 08:51:26;;;;;;;9.57;7.13;;;8.20;99.90;;;;;;5091251;28;20065;-78
2021/12/18 08:53:51;;;;;;;7.35;4.70;;;8.30;99.90;;;;;;5092762;28;20032;-78
2021/12/18 08:56:17;;;;;;;7.05;4.22;;;8.30;99.90;;;;;;5092664;28;20055;-78
2021/12/18 08:58:43;;;;;;;8.38;4.57;;;8.40;99.90;;;;;;5092774;28;20032;-79
2021/12/18 09:01:08;;;;;;;7.97;4.38;;;8.50;99.90;;;;;;5086627;28;20040;-81
2021/12/18 09:03:34;;;;;;;6.93;4.30;;;8.60;99.90;;;;;;5089020;28;20039;-83
2021/12/18 09:06:00;;;;;;;5.47;3.67;;;8.70;99.90;;;;;;5093205;28;20036;-83
2021/12/18 09:08:25;;;;;;;6.35;3.92;;;8.80;99.90;;;;;;5093500;28;20123;-84
2021/12/18 09:10:51;;;;;;;7.53;3.60;;;9.00;99.90;;;;;;5092684;28;20032;-84
2021/12/18 09:13:18;;;;;;;7.70;3.78;;;9.10;99.90;;;;;;5092790;28;20031;-84
2021/12/18 09:15:44;;;;;;;7.18;5.20;;;9.20;99.90;;;;;;5094240;28;20017;-84
2021/12/18 09:18:09;;;;;;;29.83;13.50;;;9.30;99.90;;;;;;5093890;28;20020;-84
2021/12/18 09:20:35;;;;;;;66.60;28.98;;;9.40;99.90;;;;;;5093707;28;20024;-83
2021/12/18 09:23:01;;;;;;;7.00;4.38;;;9.50;99.90;;;;;;5090816;28;20020;-81
2021/12/18 09:25:28;;;;;;;7.90;4.65;;;9.50;98.70;;;;;;5092493;28;20055;-81
2021/12/18 09:27:57;;;;;;;11.32;4.30;;;9.60;98.30;;;;;;5091942;28;20113;-83
2021/12/18 09:30:24;;;;;;;9.05;4.10;;;9.70;97.40;;;;;;5091794;28;20028;-82
2021/12/18 09:32:50;;;;;;;8.13;3.92;;;9.70;97.00;;;;;;5092192;28;20474;-81
2021/12/18 09:35:16;;;;;;;5.40;3.83;;;9.70;98.10;;;;;;5092123;28;20103;-82
2021/12/18 09:37:43;;;;;;;6.85;3.80;;;9.70;96.30;;;;;;5092026;28;20027;-82
2021/12/18 09:40:11;;;;;;;4.95;3.80;;;9.70;96.80;;;;;;5091449;28;20059;-81
2021/12/18 09:42:38;;;;;;;6.68;3.70;;;9.80;96.60;;;;;;5091983;28;20491;-80
2021/12/18 09:45:05;;;;;;;8.32;3.38;;;9.80;95.60;;;;;;5091634;28;20043;-81
2021/12/18 09:47:31;;;;;;;10.63;4.30;;;9.80;95.30;;;;;;5091602;28;20040;-81
2021/12/18 09:49:58;;;;;;;7.75;4.85;;;9.90;98.40;;;;;;5092042;28;20390;-82
2021/12/18 09:52:25;;;;;;;5.20;3.33;;;10.00;95.40;;;;;;5091714;28;20497;-82
2021/12/18 09:54:56;;;;;;;5.53;3.50;;;10.00;93.20;;;;;;5091502;28;20407;-82
2021/12/18 09:57:22;;;;;;;6.80;4.07;;;10.00;93.50;;;;;;5091596;28;20163;-83
2021/12/18 09:59:47;;;;;;;5.97;3.50;;;10.10;93.40;;;;;;5091728;28;20028;-82
2021/12/18 10:02:13;;;;;;;6.28;3.42;;;10.20;93.20;;;;;;5091450;28;20031;-81
2021/12/18 10:04:39;;;;;;;6.40;3.28;;;10.20;92.90;;;;;;5091619;28;20383;-82
2021/12/18 10:07:18;;;;;;;5.30;3.55;;;10.30;92.90;;;;;;5091064;28;20028;-81
2021/12/18 10:09:45;;;;;;;4.60;3.15;;;10.30;92.30;;;;;;5090457;28;20038;-80
2021/12/18 10:12:21;;;;;;;6.22;3.33;;;10.30;92.10;;;;;;5090748;28;20022;-82
2021/12/18 10:15:00;;;;;;;7.68;3.45;;;10.40;91.90;;;;;;5091352;28;20111;-81
2021/12/18 10:17:29;;;;;;;6.22;3.33;;;10.60;91.80;;;;;;5091048;28;20032;-80
2021/12/18 10:20:17;;;;;;;4.00;3.45;;;10.80;88.70;;;;;;5087071;28;20028;-84
2021/12/18 10:22:51;;;;;;;6.32;3.38;;;10.90;87.50;;;;;;5088388;28;20081;-80
2021/12/18 10:25:21;;;;;;;3.70;3.28;;;10.90;90.70;;;;;;5091057;28;20047;-80
2021/12/18 10:27:56;;;;;;;4.10;2.95;;;11.00;90.70;;;;;;5090743;28;20478;-80
2021/12/18 10:30:22;;;;;;;6.03;3.28;;;11.00;89.20;;;;;;5090766;28;20032;-80
2021/12/18 10:33:18;;;;;;;7.50;2.90;;;11.00;89.60;;;;;;5091151;28;20020;-81
2021/12/18 10:35:52;;;;;;;5.97;3.60;;;11.10;87.80;;;;;;5081882;28;20502;-82
2021/12/18 10:38:47;;;;;;;5.20;2.85;;;11.10;87.00;;;;;;5084085;28;20475;-80
2021/12/18 10:41:19;;;;;;;4.75;3.33;;;11.20;83.90;;;;;;5090455;28;20088;-80
2021/12/18 10:43:56;;;;;;;4.03;3.00;;;11.20;87.80;;;;;;5091368;28;20035;-80
2021/12/18 10:46:22;;;;;;;5.18;3.10;;;11.40;85.00;;;;;;5090929;28;20062;-80
2021/12/18 10:49:07;;;;;;;9.60;4.88;;;11.50;84.50;;;;;;5089605;28;20090;-81
2021/12/18 10:51:34;;;;;;;7.18;4.10;;;11.50;81.70;;;;;;5087982;28;20064;-81
2021/12/18 10:54:06;;;;;;;5.38;2.90;;;11.50;80.40;;;;;;5090707;28;20089;-80
2021/12/18 10:56:39;;;;;;;4.07;2.80;;;11.40;79.50;;;;;;5087485;28;20127;-82
2021/12/18 10:59:19;;;;;;;3.78;2.78;;;11.40;82.50;;;;;;5089510;28;20036;-81
2021/12/18 11:01:50;;;;;;;4.15;2.83;;;11.50;78.60;;;;;;5090234;28;20028;-82
2021/12/18 11:04:23;;;;;;;4.93;2.60;;;11.40;76.20;;;;;;5089975;28;20031;-84
2021/12/18 11:06:49;;;;;;;4.90;2.80;;;11.50;76.70;;;;;;5090881;28;20029;-81
2021/12/18 11:09:17;;;;;;;5.25;3.20;;;11.60;78.60;;;;;;5090226;28;20105;-81
2021/12/18 11:14:11;;;;;;;5.22;3.17;;;11.70;76.10;;;;;;5091015;28;20024;-81
2021/12/18 11:16:39;;;;;;;8.40;3.00;;;11.70;77.60;;;;;;5090344;28;20515;-81
2021/12/18 11:19:13;;;;;;;4.30;3.35;;;11.80;74.90;;;;;;5089374;28;20190;-82
2021/12/18 11:21:45;;;;;;;9.75;3.70;;;11.80;79.40;;;;;;5090149;28;20035;-81
2021/12/18 11:24:12;;;;;;;5.35;3.10;;;11.60;80.30;;;;;;5091526;28;20032;-81
2021/12/18 11:26:58;;;;;;;8.55;3.55;;;11.50;79.10;;;;;;5090588;28;20039;-82
2021/12/18 11:29:34;;;;;;;5.72;4.07;;;11.50;90.50;;;;;;5093140;28;20562;-81
2021/12/18 11:32:00;;;;;;;6.88;3.80;;;11.30;92.40;;;;;;5095417;28;20079;-81
2021/12/18 11:34:26;;;;;;;5.53;4.00;;;11.20;92.70;;;;;;5095802;28;20035;-80
2021/12/18 11:36:53;;;;;;;9.98;3.90;;;11.10;91.90;;;;;;5094505;28;20028;-81
2021/12/18 11:39:28;;;;;;;6.60;3.80;;;11.00;91.90;;;;;;5094642;28;20032;-80
2021/12/18 11:41:54;;;;;;;7.78;3.85;;;10.90;92.90;;;;;;5093885;28;20040;-81
2021/12/18 11:44:30;;;;;;;8.93;3.35;;;10.90;91.40;;;;;;5094599;28;20028;-80
2021/12/18 11:46:57;;;;;;;6.95;3.53;;;11.00;91.00;;;;;;5093876;28;20020;-81
2021/12/18 11:49:25;;;;;;;5.85;4.07;;;11.10;91.50;;;;;;5094946;28;20403;-81
2021/12/18 11:52:00;;;;;;;3.90;3.35;;;11.20;91.90;;;;;;5093734;28;20497;-81
2021/12/18 11:54:45;;;;;;;4.88;3.25;;;11.30;89.90;;;;;;5094862;28;20116;-81
2021/12/18 11:57:13;;;;;;;16.77;4.00;;;11.50;86.40;;;;;;5093909;28;20115;-83
2021/12/18 11:59:43;;;;;;;4.88;3.78;;;11.60;84.60;;;;;;5094136;28;20486;-81
2021/12/18 12:02:11;;;;;;;4.65;3.72;;;11.50;91.80;;;;;;5093634;28;20032;-80
2021/12/18 12:04:58;;;;;;;12.15;4.28;;;11.60;91.90;;;;;;5091973;28;20187;-80
2021/12/18 12:07:27;;;;;;;5.97;4.15;;;11.70;92.40;;;;;;5093556;28;20028;-79
2021/12/18 12:10:12;;;;;;;5.10;3.92;;;11.80;92.50;;;;;;5088048;28;20024;-80
2021/12/18 12:13:07;;;;;;;6.75;3.63;;;11.80;92.40;;;;;;5093559;28;20196;-80
2021/12/18 12:15:33;;;;;;;6.10;3.95;;;12.30;91.50;;;;;;5084652;28;20032;-80
2021/12/18 12:18:01;;;;;;;8.18;3.70;;;11.70;92.00;;;;;;5093721;28;20017;-80
2021/12/18 12:20:47;;;;;;;6.72;3.88;;;11.20;93.10;;;;;;5093304;28;20099;-79
2021/12/18 12:23:14;;;;;;;5.43;3.50;;;11.20;92.90;;;;;;5085089;28;20028;-82
2021/12/18 12:25:45;;;;;;;6.07;3.85;;;11.80;91.90;;;;;;5093228;28;20035;-80
2021/12/18 12:28:20;;;;;;;12.52;3.65;;;12.30;91.30;;;;;;5093576;28;20055;-80
2021/12/18 12:30:47;;;;;;;7.85;3.50;;;13.60;90.00;;;;;;5093071;28;20502;-81
2021/12/18 12:33:26;;;;;;;14.20;7.18;;;15.40;84.30;;;;;;5085087;28;20028;-80
2021/12/18 12:35:56;;;;;;;7.55;4.55;;;16.90;80.10;;;;;;5093086;28;20089;-81
2021/12/18 12:38:28;;;;;;;5.03;3.75;;;17.00;78.50;;;;;;5093243;28;20024;-79
2021/12/18 12:40:56;;;;;;;7.05;3.67;;;17.00;77.30;;;;;;5091328;28;20048;-79
2021/12/18 12:43:27;;;;;;;6.35;4.10;;;16.90;75.10;;;;;;5093319;28;20112;-80
2021/12/18 12:45:59;;;;;;;8.50;3.72;;;16.60;75.70;;;;;;5093373;28;20047;-80
2021/12/18 12:48:25;;;;;;;4.35;3.65;;;16.50;76.50;;;;;;5093301;28;20190;-79
2021/12/18 12:50:56;;;;;;;8.50;4.05;;;17.00;75.40;;;;;;5092810;28;20035;-81
2021/12/18 12:53:42;;;;;;;4.95;3.80;;;17.30;74.10;;;;;;5093108;28;20081;-80
2021/12/18 12:56:16;;;;;;;7.28;3.72;;;17.10;72.40;;;;;;5092689;28;20028;-81
2021/12/18 12:58:41;;;;;;;7.70;3.88;;;16.90;72.90;;;;;;5092713;28;20101;-81
2021/12/18 13:01:08;;;;;;;4.65;3.75;;;17.50;71.00;;;;;;5092283;28;20059;-81
2021/12/18 13:03:37;;;;;;;4.40;3.42;;;17.60;70.20;;;;;;5092945;28;20024;-80
2021/12/18 13:06:06;;;;;;;5.63;3.85;;;17.30;70.60;;;;;;5092551;28;20089;-81
2021/12/18 13:08:36;;;;;;;6.22;3.60;;;17.30;69.80;;;;;;5092543;28;20044;-80
2021/12/18 13:11:03;;;;;;;5.03;3.35;;;17.20;70.50;;;;;;5091941;28;20024;-79
2021/12/18 13:13:32;;;;;;;8.40;4.03;;;17.40;69.70;;;;;;5092374;28;20032;-83
2021/12/18 13:16:15;;;;;;;4.50;3.38;;;18.00;68.80;;;;;;5092512;28;20028;-82
2021/12/18 13:18:48;;;;;;;5.00;3.85;;;18.80;64.90;;;;;;5092255;28;20027;-81
2021/12/18 13:21:20;;;;;;;4.85;3.30;;;18.30;64.90;;;;;;5092154;28;20055;-82
2021/12/18 13:24:03;;;;;;;7.28;3.70;;;17.90;65.80;;;;;;5092409;28;20053;-82
2021/12/18 13:26:55;;;;;;;5.40;4.03;;;18.20;64.80;;;;;;5088743;28;20028;-82
2021/12/18 13:29:24;;;;;;;5.75;3.67;;;17.90;63.30;;;;;;5090886;28;20048;-81
2021/12/18 13:31:58;;;;;;;7.78;3.83;;;17.80;63.70;;;;;;5092314;28;20024;-82
2021/12/18 13:34:26;;;;;;;6.93;3.85;;;18.50;63.10;;;;;;5088018;28;20082;-81
2021/12/18 13:36:58;;;;;;;8.85;4.15;;;18.80;62.70;;;;;;5091999;28;20035;-82
2021/12/18 13:39:30;;;;;;;7.13;3.80;;;18.60;63.70;;;;;;5092882;28;20031;-82
2021/12/18 13:42:01;;;;;;;7.35;3.97;;;18.90;64.90;;;;;;5092219;28;20044;-81
2021/12/18 13:44:54;;;;;;;9.15;4.22;;;19.00;63.70;;;;;;5093431;28;20123;-82